createdAt,value
2023-08-16T00:00:34.921Z,20.03
2023-08-16T00:01:07.683Z,20.03
2023-08-16T00:02:04.797Z,20
2023-08-16T00:02:34.868Z,20
2023-08-16T00:03:04.412Z,20
2023-08-16T00:03:34.436Z,20.05
2023-08-16T00:04:04.589Z,20.02
2023-08-16T00:04:34.383Z,19.97
2023-08-16T00:05:04.726Z,19.98
2023-08-16T00:05:34.827Z,19.96
2023-08-16T00:06:04.298Z,19.94
2023-08-16T00:06:34.420Z,19.92
2023-08-16T00:07:04.307Z,19.9
2023-08-16T00:07:34.368Z,19.89
2023-08-16T00:08:04.340Z,19.94
2023-08-16T00:08:34.347Z,19.94
2023-08-16T00:09:04.322Z,19.85
2023-08-16T00:09:34.456Z,19.83
2023-08-16T00:10:04.747Z,19.88
2023-08-16T00:10:34.463Z,19.91
2023-08-16T00:11:04.350Z,19.95
2023-08-16T00:11:34.328Z,19.91
2023-08-16T00:12:04.387Z,19.9
2023-08-16T00:12:34.421Z,19.9
2023-08-16T00:13:34.274Z,19.86
2023-08-16T00:14:04.523Z,19.87
2023-08-16T00:14:34.992Z,19.89
2023-08-16T00:15:04.762Z,19.87
2023-08-16T00:15:34.473Z,19.88
2023-08-16T00:16:04.776Z,19.93
2023-08-16T00:16:37.039Z,19.93
2023-08-16T00:17:04.913Z,19.92
2023-08-16T00:18:04.400Z,19.89
2023-08-16T00:18:34.501Z,19.83
2023-08-16T00:19:04.987Z,19.83
2023-08-16T00:19:34.797Z,19.83
2023-08-16T00:20:04.326Z,19.83
2023-08-16T00:20:34.365Z,19.82
2023-08-16T00:21:04.296Z,19.82
2023-08-16T00:21:34.414Z,19.84
2023-08-16T00:22:04.472Z,19.85
2023-08-16T00:22:34.400Z,19.87
2023-08-16T00:23:34.468Z,19.86
2023-08-16T00:24:05.060Z,19.86
2023-08-16T00:25:05.438Z,19.85
2023-08-16T00:25:34.249Z,19.81
2023-08-16T00:26:04.249Z,19.81
2023-08-16T00:26:34.347Z,19.83
2023-08-16T00:27:07.016Z,19.85
2023-08-16T00:28:04.319Z,19.85
2023-08-16T00:28:34.806Z,19.87
2023-08-16T00:29:04.758Z,19.88
2023-08-16T00:30:04.369Z,19.86
2023-08-16T00:30:34.488Z,19.85
2023-08-16T00:31:04.861Z,19.84
2023-08-16T00:31:34.300Z,19.81
2023-08-16T00:32:34.830Z,19.84
2023-08-16T00:33:05.000Z,19.83
2023-08-16T00:34:04.432Z,19.83
2023-08-16T00:34:34.271Z,19.83
2023-08-16T00:35:04.419Z,19.82
2023-08-16T00:35:34.300Z,19.82
2023-08-16T00:36:34.303Z,19.83
2023-08-16T00:37:04.369Z,19.82
2023-08-16T00:37:34.342Z,19.82
2023-08-16T00:38:04.852Z,19.8
2023-08-16T00:38:34.436Z,19.79
2023-08-16T00:39:34.361Z,19.78
2023-08-16T00:40:04.380Z,19.75
2023-08-16T00:41:04.323Z,19.73
2023-08-16T00:41:34.305Z,19.71
2023-08-16T00:42:37.503Z,19.69
2023-08-16T00:43:04.719Z,19.7
2023-08-16T00:43:34.255Z,19.7
2023-08-16T00:44:04.332Z,19.71
2023-08-16T00:44:34.702Z,19.73
2023-08-16T00:45:34.356Z,19.7
2023-08-16T00:46:04.781Z,19.7
2023-08-16T00:46:34.437Z,19.7
2023-08-16T00:47:04.854Z,19.7
2023-08-16T00:47:34.848Z,19.72
2023-08-16T00:48:34.322Z,19.78
2023-08-16T00:49:04.265Z,19.85
2023-08-16T00:49:34.418Z,19.88
2023-08-16T00:50:04.319Z,19.87
2023-08-16T00:51:04.355Z,19.93
2023-08-16T00:51:34.292Z,19.89
2023-08-16T00:52:04.754Z,19.74
2023-08-16T00:52:34.799Z,19.79
2023-08-16T00:53:34.371Z,19.76
2023-08-16T00:54:04.391Z,19.82
2023-08-16T00:54:34.490Z,19.83
2023-08-16T00:55:04.370Z,19.82
2023-08-16T00:55:34.378Z,19.73
2023-08-16T00:56:04.342Z,19.71
2023-08-16T00:56:34.805Z,19.74
2023-08-16T00:57:04.789Z,19.74
2023-08-16T00:58:06.936Z,19.75
2023-08-16T00:58:34.320Z,19.73
2023-08-16T00:59:34.345Z,19.76
2023-08-16T01:00:04.243Z,19.8
2023-08-16T01:00:34.351Z,19.78
2023-08-16T01:01:04.921Z,19.78
2023-08-16T01:01:34.958Z,19.79
2023-08-16T01:02:35.142Z,19.77
2023-08-16T01:03:04.466Z,19.76
2023-08-16T01:04:04.466Z,19.74
2023-08-16T01:04:34.289Z,19.71
2023-08-16T01:05:34.338Z,19.77
2023-08-16T01:06:04.698Z,19.81
2023-08-16T01:06:35.156Z,19.82
2023-08-16T01:07:34.356Z,19.81
2023-08-16T01:08:04.269Z,19.81
2023-08-16T01:08:34.397Z,19.83
2023-08-16T01:09:04.293Z,19.85
2023-08-16T01:09:34.438Z,19.89
2023-08-16T01:10:04.294Z,19.9
2023-08-16T01:10:34.825Z,19.91
2023-08-16T01:11:34.353Z,19.9
2023-08-16T01:12:04.378Z,19.91
2023-08-16T01:12:34.479Z,19.93
2023-08-16T01:13:04.278Z,19.94
2023-08-16T01:13:36.956Z,19.92
2023-08-16T01:14:04.326Z,19.91
2023-08-16T01:15:04.892Z,19.95
2023-08-16T01:15:34.892Z,19.97
2023-08-16T01:16:34.374Z,19.95
2023-08-16T01:17:04.975Z,19.97
2023-08-16T01:17:34.877Z,20.04
2023-08-16T01:18:34.387Z,20.1
2023-08-16T01:19:04.341Z,20.11
2023-08-16T01:19:34.357Z,20.15
2023-08-16T01:20:05.718Z,20.19
2023-08-16T01:20:34.408Z,20.2
2023-08-16T01:21:04.369Z,20.22
2023-08-16T01:21:34.265Z,20.24
2023-08-16T01:22:04.341Z,20.25
2023-08-16T01:22:34.255Z,20.26
2023-08-16T01:23:04.353Z,20.26
2023-08-16T01:23:34.325Z,20.29
2023-08-16T01:24:04.378Z,20.31
2023-08-16T01:24:34.940Z,20.33
2023-08-16T01:25:04.869Z,20.37
2023-08-16T01:26:04.297Z,20.44
2023-08-16T01:26:34.414Z,20.49
2023-08-16T01:27:04.317Z,20.52
2023-08-16T01:27:34.418Z,20.5
2023-08-16T01:28:04.396Z,20.49
2023-08-16T01:28:34.620Z,20.48
2023-08-16T01:29:08.182Z,20.47
2023-08-16T01:29:35.199Z,20.49
2023-08-16T01:30:35.657Z,20.5
2023-08-16T01:31:05.863Z,20.5
2023-08-16T01:32:05.653Z,20.51
2023-08-16T01:32:35.740Z,20.51
2023-08-16T01:33:35.642Z,20.55
2023-08-16T01:34:05.661Z,20.56
2023-08-16T01:35:05.154Z,20.59
2023-08-16T01:35:34.824Z,20.59
2023-08-16T01:36:04.672Z,20.6
2023-08-16T01:36:34.449Z,20.62
2023-08-16T01:37:04.524Z,20.62
2023-08-16T01:37:34.476Z,20.62
2023-08-16T01:38:04.508Z,20.65
2023-08-16T01:38:35.228Z,20.67
2023-08-16T01:39:37.091Z,20.68
2023-08-16T01:40:04.339Z,20.7
2023-08-16T01:40:34.387Z,20.7
2023-08-16T01:41:04.377Z,20.73
2023-08-16T01:41:34.403Z,20.73
2023-08-16T01:42:34.317Z,20.76
2023-08-16T01:43:04.870Z,20.76
2023-08-16T01:43:34.679Z,20.78
2023-08-16T01:44:04.359Z,20.78
2023-08-16T01:44:34.368Z,20.8
2023-08-16T01:45:04.315Z,20.81
2023-08-16T01:45:34.367Z,20.82
2023-08-16T01:46:04.996Z,20.83
2023-08-16T01:46:34.576Z,20.88
2023-08-16T01:47:35.019Z,20.88
2023-08-16T01:48:04.862Z,20.88
2023-08-16T01:49:04.379Z,20.89
2023-08-16T01:49:34.382Z,20.89
2023-08-16T01:50:34.354Z,20.96
2023-08-16T01:51:04.381Z,20.97
2023-08-16T01:51:34.395Z,20.96
2023-08-16T01:52:04.913Z,20.95
2023-08-16T01:52:34.810Z,20.95
2023-08-16T01:53:34.493Z,20.95
2023-08-16T01:54:04.402Z,20.94
2023-08-16T01:55:07.321Z,21.01
2023-08-16T01:55:34.352Z,21.01
2023-08-16T01:56:34.341Z,20.99
2023-08-16T01:57:04.748Z,20.97
2023-08-16T01:57:34.436Z,21.02
2023-08-16T01:58:34.343Z,21.03
2023-08-16T01:59:04.396Z,21.04
2023-08-16T01:59:34.435Z,20.98
2023-08-16T02:00:04.543Z,20.98
2023-08-16T02:00:34.544Z,20.98
2023-08-16T02:01:34.638Z,20.99
2023-08-16T02:02:04.437Z,21
2023-08-16T02:03:04.403Z,20.99
2023-08-16T02:03:34.483Z,20.99
2023-08-16T02:04:34.374Z,20.99
2023-08-16T02:05:04.390Z,21
2023-08-16T02:05:34.658Z,21
2023-08-16T02:06:04.702Z,21.02
2023-08-16T02:06:34.889Z,21.04
2023-08-16T02:07:04.316Z,21.06
2023-08-16T02:07:34.344Z,21.07
2023-08-16T02:08:04.488Z,21.07
2023-08-16T02:08:34.316Z,21.1
2023-08-16T02:09:04.472Z,21.08
2023-08-16T02:09:34.498Z,21.08
2023-08-16T02:10:37.479Z,21.09
2023-08-16T02:11:04.709Z,21.08
2023-08-16T02:11:34.320Z,21.08
2023-08-16T02:12:04.479Z,21.07
2023-08-16T02:12:34.471Z,21.07
2023-08-16T02:13:34.530Z,21.08
2023-08-16T02:14:04.403Z,21.07
2023-08-16T02:15:04.459Z,21.07
2023-08-16T02:15:34.961Z,21.07
2023-08-16T02:16:04.755Z,21.09
2023-08-16T02:16:34.320Z,21.09
2023-08-16T02:17:04.909Z,21.07
2023-08-16T02:17:34.878Z,21.08
2023-08-16T02:18:34.423Z,21.14
2023-08-16T02:19:04.345Z,21.14
2023-08-16T02:19:34.372Z,21.16
2023-08-16T02:20:04.715Z,21.14
2023-08-16T02:20:34.793Z,21.15
2023-08-16T02:21:34.345Z,21.13
2023-08-16T02:22:04.349Z,21.12
2023-08-16T02:22:42.596Z,21.11
2023-08-16T02:23:04.320Z,21.13
2023-08-16T02:23:34.496Z,21.13
2023-08-16T02:24:04.626Z,21.13
2023-08-16T02:25:04.917Z,21.13
2023-08-16T02:25:34.240Z,21.13
2023-08-16T02:26:06.849Z,21.15
2023-08-16T02:26:34.349Z,21.17
2023-08-16T02:27:34.293Z,21.2
2023-08-16T02:28:04.234Z,21.19
2023-08-16T02:29:04.268Z,21.15
2023-08-16T02:29:34.874Z,21.16
2023-08-16T02:30:04.499Z,21.18
2023-08-16T02:31:04.894Z,21.16
2023-08-16T02:31:34.457Z,21.15
2023-08-16T02:32:04.875Z,21.12
2023-08-16T02:32:34.992Z,21.1
2023-08-16T02:33:04.328Z,21.09
2023-08-16T02:33:34.377Z,21.12
2023-08-16T02:34:04.849Z,21.09
2023-08-16T02:34:34.899Z,21.06
2023-08-16T02:35:34.293Z,21.02
2023-08-16T02:36:04.304Z,21.01
2023-08-16T02:36:37.039Z,21.02
2023-08-16T02:37:04.296Z,21.02
2023-08-16T02:37:34.304Z,21.02
2023-08-16T02:38:04.330Z,21.02
2023-08-16T02:38:34.409Z,21.03
2023-08-16T02:39:04.644Z,21.01
2023-08-16T02:40:04.441Z,20.97
2023-08-16T02:40:34.672Z,21.01
2023-08-16T02:41:34.348Z,21.02
2023-08-16T02:42:04.404Z,21.01
2023-08-16T02:42:34.357Z,21.01
2023-08-16T02:43:04.316Z,21
2023-08-16T02:43:34.794Z,21
2023-08-16T02:44:04.704Z,20.99
2023-08-16T02:44:34.354Z,21
2023-08-16T02:45:04.340Z,21
2023-08-16T02:45:34.316Z,21.01
2023-08-16T02:46:04.884Z,21.01
2023-08-16T02:46:34.511Z,21.01
2023-08-16T02:47:34.869Z,21.03
2023-08-16T02:48:05.236Z,21.05
2023-08-16T02:49:04.258Z,21.05
2023-08-16T02:49:34.398Z,21.03
2023-08-16T02:50:04.545Z,21.02
2023-08-16T02:51:04.300Z,21
2023-08-16T02:51:34.496Z,21.02
2023-08-16T02:52:06.904Z,21.02
2023-08-16T02:52:34.981Z,21.02
2023-08-16T02:53:34.254Z,21.04
2023-08-16T02:54:04.423Z,21.06
2023-08-16T02:54:34.741Z,21.09
2023-08-16T02:55:34.339Z,21.09
2023-08-16T02:56:04.342Z,21.1
2023-08-16T02:56:34.297Z,21.1
2023-08-16T02:57:04.452Z,21.09
2023-08-16T02:57:34.823Z,21.09
2023-08-16T02:58:34.344Z,21.08
2023-08-16T02:59:04.371Z,21.08
2023-08-16T02:59:34.267Z,21.08
2023-08-16T03:00:04.298Z,21.06
2023-08-16T03:00:34.378Z,21.05
2023-08-16T03:01:04.848Z,21.05
2023-08-16T03:01:34.399Z,21.03
2023-08-16T03:02:04.814Z,21.03
2023-08-16T03:02:37.588Z,20.99
2023-08-16T03:03:04.313Z,20.97
2023-08-16T03:03:34.346Z,20.93
2023-08-16T03:04:04.397Z,20.91
2023-08-16T03:04:34.265Z,20.89
2023-08-16T03:05:34.467Z,20.87
2023-08-16T03:06:04.388Z,20.85
2023-08-16T03:06:35.059Z,20.86
2023-08-16T03:07:04.815Z,20.87
2023-08-16T03:08:04.444Z,20.86
2023-08-16T03:08:34.458Z,20.87
2023-08-16T03:09:04.244Z,20.87
2023-08-16T03:09:34.293Z,20.86
2023-08-16T03:10:04.294Z,20.87
2023-08-16T03:10:34.364Z,20.86
2023-08-16T03:11:04.871Z,20.85
2023-08-16T03:11:34.974Z,20.85
2023-08-16T03:12:34.719Z,20.86
2023-08-16T03:13:04.847Z,20.86
2023-08-16T03:14:04.829Z,20.9
2023-08-16T03:14:34.355Z,20.9
2023-08-16T03:15:34.331Z,20.86
2023-08-16T03:16:05.068Z,20.87
2023-08-16T03:16:34.443Z,20.87
2023-08-16T03:17:34.893Z,20.86
2023-08-16T03:18:06.997Z,20.86
2023-08-16T03:19:04.323Z,20.86
2023-08-16T03:19:34.318Z,20.87
2023-08-16T03:20:04.415Z,20.9
2023-08-16T03:20:34.738Z,20.9
2023-08-16T03:21:04.723Z,20.92
2023-08-16T03:21:34.397Z,20.92
2023-08-16T03:22:04.319Z,20.93
2023-08-16T03:22:34.455Z,20.95
2023-08-16T03:23:04.398Z,20.97
2023-08-16T03:23:34.344Z,21
2023-08-16T03:24:04.513Z,21.01
2023-08-16T03:24:34.249Z,21.03
2023-08-16T03:25:04.895Z,21.03
2023-08-16T03:25:34.353Z,21.03
2023-08-16T03:26:04.288Z,20.98
2023-08-16T03:26:34.417Z,20.95
2023-08-16T03:27:04.295Z,20.93
2023-08-16T03:28:04.373Z,20.9
2023-08-16T03:28:34.292Z,20.89
2023-08-16T03:29:04.296Z,20.86
2023-08-16T03:29:34.341Z,20.86
2023-08-16T03:30:04.828Z,20.85
2023-08-16T03:31:04.750Z,20.85
2023-08-16T03:31:34.319Z,20.85
2023-08-16T03:32:05.069Z,20.85
2023-08-16T03:32:34.809Z,20.85
2023-08-16T03:33:37.061Z,20.83
2023-08-16T03:34:04.296Z,20.82
2023-08-16T03:35:04.662Z,20.81
2023-08-16T03:35:34.398Z,20.81
2023-08-16T03:36:34.445Z,20.79
2023-08-16T03:37:04.369Z,20.74
2023-08-16T03:38:04.509Z,20.74
2023-08-16T03:38:34.503Z,20.73
2023-08-16T03:39:05.024Z,20.74
2023-08-16T03:39:34.862Z,20.75
2023-08-16T03:40:34.226Z,20.79
2023-08-16T03:41:04.321Z,20.8
2023-08-16T03:41:34.324Z,20.78
2023-08-16T03:42:04.243Z,20.77
2023-08-16T03:42:34.345Z,20.75
2023-08-16T03:43:34.336Z,20.77
2023-08-16T03:44:07.508Z,20.79
2023-08-16T03:44:34.537Z,20.83
2023-08-16T03:45:34.643Z,20.88
2023-08-16T03:46:04.755Z,20.88
2023-08-16T03:47:04.981Z,20.88
2023-08-16T03:47:34.559Z,20.84
2023-08-16T03:48:34.949Z,20.8
2023-08-16T03:49:04.949Z,20.77
2023-08-16T03:50:04.210Z,20.77
2023-08-16T03:50:34.357Z,20.8
2023-08-16T03:51:04.370Z,20.79
2023-08-16T03:51:34.472Z,20.78
2023-08-16T03:52:34.339Z,20.78
2023-08-16T03:53:04.893Z,20.78
2023-08-16T03:53:34.987Z,20.78
2023-08-16T03:54:37.038Z,20.79
2023-08-16T03:55:04.321Z,20.83
2023-08-16T03:55:34.420Z,20.81
2023-08-16T03:56:04.296Z,20.89
2023-08-16T03:56:34.559Z,21.01
2023-08-16T03:57:04.451Z,21
2023-08-16T03:57:34.943Z,21.01
2023-08-16T03:58:05.008Z,21.03
2023-08-16T03:59:04.345Z,20.92
2023-08-16T03:59:34.556Z,20.9
2023-08-16T04:00:04.274Z,20.89
2023-08-16T04:00:34.277Z,20.89
2023-08-16T04:01:04.302Z,20.92
2023-08-16T04:01:34.321Z,20.94
2023-08-16T04:02:06.086Z,20.99
2023-08-16T04:02:34.609Z,21
2023-08-16T04:03:34.564Z,20.95
2023-08-16T04:04:04.248Z,20.94
2023-08-16T04:04:34.492Z,20.95
2023-08-16T04:05:04.359Z,20.96
2023-08-16T04:05:34.351Z,20.97
2023-08-16T04:06:04.495Z,21.1
2023-08-16T04:06:34.497Z,21.04
2023-08-16T04:07:34.332Z,21
2023-08-16T04:08:04.267Z,20.98
2023-08-16T04:08:34.321Z,21.01
2023-08-16T04:09:04.418Z,21.01
2023-08-16T04:09:34.342Z,21
2023-08-16T04:10:06.999Z,20.98
2023-08-16T04:10:34.327Z,20.95
2023-08-16T04:11:34.443Z,20.93
2023-08-16T04:12:04.752Z,20.93
2023-08-16T04:13:04.646Z,20.94
2023-08-16T04:13:34.312Z,20.96
2023-08-16T04:14:04.370Z,20.95
2023-08-16T04:14:34.482Z,20.96
2023-08-16T04:15:34.397Z,20.9
2023-08-16T04:16:05.031Z,20.86
2023-08-16T04:16:35.060Z,20.86
2023-08-16T04:17:34.381Z,20.84
2023-08-16T04:18:04.340Z,20.82
2023-08-16T04:18:34.322Z,20.82
2023-08-16T04:19:04.416Z,20.83
2023-08-16T04:19:34.479Z,20.83
2023-08-16T04:20:04.469Z,20.84
2023-08-16T04:21:04.848Z,20.87
2023-08-16T04:21:34.298Z,20.88
2023-08-16T04:22:34.388Z,20.9
2023-08-16T04:23:04.454Z,21.06
2023-08-16T04:24:04.323Z,20.98
2023-08-16T04:24:34.758Z,20.95
2023-08-16T04:25:04.373Z,20.96
2023-08-16T04:25:37.942Z,20.96
2023-08-16T04:26:04.942Z,20.96
2023-08-16T04:27:04.268Z,20.97
2023-08-16T04:27:34.316Z,20.98
2023-08-16T04:28:04.296Z,21
2023-08-16T04:28:34.357Z,21.01
2023-08-16T04:29:04.253Z,21.02
2023-08-16T04:29:34.422Z,21.06
2023-08-16T04:30:04.385Z,21.08
2023-08-16T04:30:34.936Z,21.08
2023-08-16T04:31:04.804Z,21.1
2023-08-16T04:32:04.728Z,21.13
2023-08-16T04:32:34.365Z,21.15
2023-08-16T04:33:04.358Z,21.17
2023-08-16T04:33:34.342Z,21.17
2023-08-16T04:34:04.323Z,21.16
2023-08-16T04:35:04.718Z,21.17
2023-08-16T04:35:34.430Z,21.17
2023-08-16T04:36:34.407Z,21.19
2023-08-16T04:37:04.535Z,21.21
2023-08-16T04:38:04.271Z,21.22
2023-08-16T04:38:34.290Z,21.25
2023-08-16T04:39:04.315Z,21.26
2023-08-16T04:39:34.945Z,21.26
2023-08-16T04:40:04.745Z,21.27
2023-08-16T04:41:07.043Z,21.26
2023-08-16T04:41:34.349Z,21.26
2023-08-16T04:42:04.302Z,21.26
2023-08-16T04:42:35.033Z,21.25
2023-08-16T04:43:04.274Z,21.26
2023-08-16T04:44:04.774Z,21.31
2023-08-16T04:44:34.884Z,21.31
2023-08-16T04:45:34.370Z,21.36
2023-08-16T04:46:04.948Z,21.35
2023-08-16T04:46:34.392Z,21.35
2023-08-16T04:47:34.471Z,21.37
2023-08-16T04:48:04.663Z,21.37
2023-08-16T04:48:34.384Z,21.37
2023-08-16T04:49:04.960Z,21.37
2023-08-16T04:50:04.537Z,21.36
2023-08-16T04:50:34.401Z,21.36
2023-08-16T04:51:04.258Z,21.37
2023-08-16T04:51:34.477Z,21.32
2023-08-16T04:52:04.423Z,21.29
2023-08-16T04:53:04.371Z,21.27
2023-08-16T04:53:34.850Z,21.27
2023-08-16T04:54:04.820Z,21.29
2023-08-16T04:55:04.538Z,21.32
2023-08-16T04:55:34.680Z,21.3
2023-08-16T04:56:37.025Z,21.19
2023-08-16T04:57:04.315Z,21.17
2023-08-16T04:57:34.480Z,21.16
2023-08-16T04:58:04.791Z,21.18
2023-08-16T04:58:34.704Z,21.19
2023-08-16T04:59:34.421Z,21.23
2023-08-16T05:00:04.359Z,21.21
2023-08-16T05:00:34.431Z,21.18
2023-08-16T05:01:04.499Z,21.18
2023-08-16T05:01:34.538Z,21.2
2023-08-16T05:02:04.928Z,21.17
2023-08-16T05:03:04.836Z,21.09
2023-08-16T05:03:34.432Z,21.07
2023-08-16T05:04:04.341Z,21.06
2023-08-16T05:04:34.747Z,21.07
2023-08-16T05:05:04.400Z,21.1
2023-08-16T05:06:04.315Z,21.13
2023-08-16T05:06:34.239Z,21.14
2023-08-16T05:07:04.343Z,21.17
2023-08-16T05:07:34.409Z,21.18
2023-08-16T05:08:04.708Z,21.18
2023-08-16T05:08:34.343Z,21.18
2023-08-16T05:09:04.295Z,21.18
2023-08-16T05:09:34.390Z,21.18
2023-08-16T05:10:04.371Z,21.18
2023-08-16T05:10:34.458Z,21.16
2023-08-16T05:11:04.401Z,21.17
2023-08-16T05:12:07.482Z,21.22
2023-08-16T05:12:34.915Z,21.23
2023-08-16T05:13:34.211Z,21.25
2023-08-16T05:14:04.304Z,21.21
2023-08-16T05:14:34.245Z,21.2
2023-08-16T05:15:04.273Z,21.19
2023-08-16T05:15:34.510Z,21.2
2023-08-16T05:16:04.962Z,21.21
2023-08-16T05:17:04.793Z,21.27
2023-08-16T05:17:34.344Z,21.29
2023-08-16T05:18:04.378Z,21.31
2023-08-16T05:18:34.325Z,21.33
2023-08-16T05:19:04.324Z,21.34
2023-08-16T05:20:04.373Z,21.38
2023-08-16T05:20:34.307Z,21.38
2023-08-16T05:21:04.331Z,21.37
2023-08-16T05:21:35.051Z,21.36
2023-08-16T05:22:04.900Z,21.37
2023-08-16T05:22:37.048Z,21.37
2023-08-16T05:23:34.349Z,21.45
2023-08-16T05:24:04.250Z,21.44
2023-08-16T05:24:34.359Z,21.47
2023-08-16T05:25:04.422Z,21.41
2023-08-16T05:25:34.456Z,21.38
2023-08-16T05:26:04.665Z,21.36
2023-08-16T05:26:34.750Z,21.37
2023-08-16T05:27:04.291Z,21.37
2023-08-16T05:27:34.399Z,21.37
2023-08-16T05:28:04.303Z,21.38
2023-08-16T05:28:34.422Z,21.38
2023-08-16T05:29:04.246Z,21.39
2023-08-16T05:29:34.344Z,21.39
2023-08-16T05:30:04.275Z,21.43
2023-08-16T05:31:04.732Z,21.48
2023-08-16T05:31:34.331Z,21.5
2023-08-16T05:32:05.009Z,21.49
2023-08-16T05:32:34.476Z,21.52
2023-08-16T05:33:34.496Z,21.53
2023-08-16T05:34:04.640Z,21.54
2023-08-16T05:35:04.229Z,21.57
2023-08-16T05:35:34.982Z,21.58
2023-08-16T05:36:04.704Z,21.57
2023-08-16T05:36:34.310Z,21.55
2023-08-16T05:37:04.304Z,21.53
2023-08-16T05:37:34.472Z,21.5
2023-08-16T05:38:07.021Z,21.46
2023-08-16T05:39:04.329Z,21.39
2023-08-16T05:39:34.409Z,21.36
2023-08-16T05:40:04.793Z,21.33
2023-08-16T05:40:35.173Z,21.33
2023-08-16T05:41:34.586Z,21.32
2023-08-16T05:42:04.421Z,21.33
2023-08-16T05:42:34.277Z,21.35
2023-08-16T05:43:04.321Z,21.37
2023-08-16T05:43:34.417Z,21.4
2023-08-16T05:44:04.343Z,21.46
2023-08-16T05:44:34.321Z,21.51
2023-08-16T05:45:04.741Z,21.51
2023-08-16T05:45:34.321Z,21.46
2023-08-16T05:46:04.767Z,21.44
2023-08-16T05:47:04.909Z,21.39
2023-08-16T05:47:34.866Z,21.36
2023-08-16T05:48:36.920Z,21.39
2023-08-16T05:49:04.320Z,21.42
2023-08-16T05:50:05.199Z,21.44
2023-08-16T05:50:34.370Z,21.44
2023-08-16T05:51:34.803Z,21.4
2023-08-16T05:52:04.345Z,21.38
2023-08-16T05:53:04.332Z,21.38
2023-08-16T05:53:34.412Z,21.35
2023-08-16T05:54:04.707Z,21.37
2023-08-16T05:54:34.841Z,21.39
2023-08-16T05:55:34.501Z,21.36
2023-08-16T05:56:04.438Z,21.36
2023-08-16T05:56:34.322Z,21.37
2023-08-16T05:57:04.217Z,21.4
2023-08-16T05:57:34.436Z,21.43
2023-08-16T05:58:04.359Z,21.45
2023-08-16T05:58:34.501Z,21.43
2023-08-16T05:59:04.765Z,21.43
2023-08-16T05:59:34.577Z,21.41
2023-08-16T06:00:34.326Z,21.47
2023-08-16T06:01:04.900Z,21.5
2023-08-16T06:01:34.724Z,21.52
2023-08-16T06:02:04.899Z,21.52
2023-08-16T06:02:35.032Z,21.52
2023-08-16T06:03:04.494Z,21.51
2023-08-16T06:03:34.981Z,21.52
2023-08-16T06:04:07.529Z,21.54
2023-08-16T06:05:04.298Z,21.58
2023-08-16T06:05:34.392Z,21.6
2023-08-16T06:06:04.277Z,21.61
2023-08-16T06:07:04.254Z,21.63
2023-08-16T06:07:34.244Z,21.59
2023-08-16T06:08:04.922Z,21.56
2023-08-16T06:08:34.988Z,21.61
2023-08-16T06:09:34.318Z,21.58
2023-08-16T06:10:04.359Z,21.56
2023-08-16T06:10:34.438Z,21.56
2023-08-16T06:11:04.271Z,21.56
2023-08-16T06:12:04.297Z,21.5
2023-08-16T06:12:34.912Z,21.49
2023-08-16T06:13:04.813Z,21.51
2023-08-16T06:13:34.323Z,21.54
2023-08-16T06:14:04.341Z,21.56
2023-08-16T06:14:34.326Z,21.56
2023-08-16T06:15:04.353Z,21.59
2023-08-16T06:16:04.965Z,21.67
2023-08-16T06:16:34.378Z,21.71
2023-08-16T06:17:04.962Z,21.74
2023-08-16T06:17:34.988Z,21.77
2023-08-16T06:18:04.285Z,21.81
2023-08-16T06:18:34.503Z,21.85
2023-08-16T06:19:04.523Z,21.89
2023-08-16T06:19:37.106Z,21.95
2023-08-16T06:20:34.322Z,21.96
2023-08-16T06:21:04.435Z,21.96
2023-08-16T06:21:34.305Z,21.99
2023-08-16T06:22:04.921Z,22.04
2023-08-16T06:22:34.849Z,22.1
2023-08-16T06:23:04.396Z,22.15
2023-08-16T06:23:34.481Z,22.2
2023-08-16T06:24:04.383Z,22.25
2023-08-16T06:25:04.258Z,22.34
2023-08-16T06:25:36.219Z,22.35
2023-08-16T06:26:04.309Z,22.3
2023-08-16T06:26:35.106Z,22.25
2023-08-16T06:27:04.874Z,22.24
2023-08-16T06:28:04.329Z,22.25
2023-08-16T06:28:34.341Z,22.27
2023-08-16T06:29:04.354Z,22.3
2023-08-16T06:30:06.934Z,22.41
2023-08-16T06:30:34.389Z,22.43
2023-08-16T06:31:34.977Z,22.28
2023-08-16T06:32:04.346Z,22.21
2023-08-16T06:33:04.508Z,22.12
2023-08-16T06:33:34.328Z,22.1
2023-08-16T06:34:04.534Z,22.1
2023-08-16T06:34:34.400Z,22.13
2023-08-16T06:35:04.773Z,22.1
2023-08-16T06:36:04.877Z,22.03
2023-08-16T06:36:34.717Z,22.02
2023-08-16T06:37:36.088Z,22.03
2023-08-16T06:38:04.337Z,22.03
2023-08-16T06:38:34.352Z,22.03
2023-08-16T06:39:04.318Z,22.05
2023-08-16T06:39:34.484Z,22.09
2023-08-16T06:40:04.500Z,22.1
2023-08-16T06:40:34.815Z,22.11
2023-08-16T06:41:04.726Z,22.14
2023-08-16T06:41:34.298Z,22.18
2023-08-16T06:42:04.296Z,22.23
2023-08-16T06:42:34.418Z,22.24
2023-08-16T06:43:06.243Z,22.22
2023-08-16T06:43:34.426Z,22.24
2023-08-16T06:44:04.444Z,22.27
2023-08-16T06:44:34.378Z,22.25
2023-08-16T06:45:37.579Z,22.15
2023-08-16T06:46:04.824Z,22.11
2023-08-16T06:47:04.403Z,21.99
2023-08-16T06:47:34.821Z,21.97
2023-08-16T06:48:34.343Z,21.95
2023-08-16T06:49:04.529Z,21.96
2023-08-16T06:49:34.371Z,21.97
2023-08-16T06:50:04.923Z,21.97
2023-08-16T06:50:35.034Z,21.92
2023-08-16T06:51:34.400Z,21.94
2023-08-16T06:52:04.394Z,21.92
2023-08-16T06:52:34.403Z,21.92
2023-08-16T06:53:04.801Z,21.93
2023-08-16T06:53:34.711Z,21.93
2023-08-16T06:54:34.775Z,21.9
2023-08-16T06:55:04.877Z,21.88
2023-08-16T06:56:04.350Z,21.84
2023-08-16T06:56:34.402Z,21.89
2023-08-16T06:57:34.361Z,21.98
2023-08-16T06:58:04.289Z,22.05
2023-08-16T06:58:34.466Z,22.12
2023-08-16T06:59:04.360Z,22.19
2023-08-16T06:59:34.780Z,22.27
2023-08-16T07:00:04.339Z,22.32
2023-08-16T07:01:07.445Z,22.31
2023-08-16T07:01:34.248Z,22.34
2023-08-16T07:02:04.423Z,22.39
2023-08-16T07:02:35.075Z,22.44
2023-08-16T07:03:04.363Z,22.5
2023-08-16T07:04:04.971Z,22.5
2023-08-16T07:04:34.833Z,22.5
2023-08-16T07:05:34.420Z,22.46
2023-08-16T07:06:04.453Z,22.45
2023-08-16T07:06:34.446Z,22.48
2023-08-16T07:07:34.519Z,22.55
2023-08-16T07:08:04.270Z,22.6
2023-08-16T07:08:34.811Z,22.64
2023-08-16T07:09:05.284Z,22.7
2023-08-16T07:10:04.342Z,22.91
2023-08-16T07:10:34.390Z,23.01
2023-08-16T07:11:04.290Z,23.08
2023-08-16T07:11:34.895Z,23.13
2023-08-16T07:12:04.341Z,23.17
2023-08-16T07:13:04.832Z,23.33
2023-08-16T07:13:34.964Z,23.38
2023-08-16T07:14:34.527Z,23.49
2023-08-16T07:15:04.344Z,23.51
2023-08-16T07:15:34.309Z,23.5
2023-08-16T07:16:04.871Z,23.53
2023-08-16T07:16:37.177Z,23.54
2023-08-16T07:17:34.967Z,23.61
2023-08-16T07:18:04.950Z,23.67
2023-08-16T07:18:34.779Z,23.77
2023-08-16T07:19:04.244Z,23.93
2023-08-16T07:19:34.342Z,23.99
2023-08-16T07:20:04.342Z,23.97
2023-08-16T07:20:34.365Z,24.01
2023-08-16T07:21:04.351Z,24.11
2023-08-16T07:21:34.425Z,24.2
2023-08-16T07:22:34.965Z,24.51
2023-08-16T07:23:04.745Z,24.65
2023-08-16T07:23:34.430Z,24.78
2023-08-16T07:24:04.294Z,24.84
2023-08-16T07:24:34.345Z,24.79
2023-08-16T07:25:04.370Z,24.75
2023-08-16T07:25:34.356Z,24.73
2023-08-16T07:26:34.451Z,24.75
2023-08-16T07:27:07.440Z,24.79
2023-08-16T07:27:34.882Z,24.89
2023-08-16T07:28:34.308Z,25.2
2023-08-16T07:29:04.430Z,25.3
2023-08-16T07:29:34.358Z,25.24
2023-08-16T07:30:06.354Z,25.11
2023-08-16T07:30:34.294Z,24.93
2023-08-16T07:31:04.809Z,24.83
2023-08-16T07:31:34.449Z,24.78
2023-08-16T07:32:04.998Z,24.75
2023-08-16T07:32:35.010Z,24.73
2023-08-16T07:33:34.292Z,24.63
2023-08-16T07:34:04.294Z,24.59
2023-08-16T07:34:34.349Z,24.56
2023-08-16T07:35:04.293Z,24.55
2023-08-16T07:35:34.346Z,24.55
2023-08-16T07:36:04.351Z,24.57
2023-08-16T07:36:35.019Z,24.61
2023-08-16T07:37:04.808Z,24.63
2023-08-16T07:38:04.381Z,24.53
2023-08-16T07:38:34.581Z,24.51
2023-08-16T07:39:04.234Z,24.5
2023-08-16T07:39:34.328Z,24.53
2023-08-16T07:40:04.280Z,24.51
2023-08-16T07:40:34.489Z,24.48
2023-08-16T07:41:04.900Z,24.42
2023-08-16T07:41:34.787Z,24.43
2023-08-16T07:42:37.349Z,24.53
2023-08-16T07:43:04.310Z,24.57
2023-08-16T07:43:34.375Z,24.61
2023-08-16T07:44:04.271Z,24.63
2023-08-16T07:44:34.343Z,24.66
2023-08-16T07:45:04.267Z,24.71
2023-08-16T07:45:34.300Z,24.72
2023-08-16T07:46:04.836Z,24.71
2023-08-16T07:46:34.420Z,24.72
2023-08-16T07:47:35.065Z,24.62
2023-08-16T07:48:04.335Z,24.55
2023-08-16T07:48:34.371Z,24.48
2023-08-16T07:49:04.345Z,24.45